Marble Canyon, AZ (86036)

1:22 AM MST on July 25, 2016 (GMT -0700)
grandview st | | Change Station

Elev 4275 ft 36.93 °N, 111.46 °W | Updated 10 minutes ago

Clear
Clear
73.0 °F
Feels Like 77 °F
N
0.0
Wind Variable Wind from ESE

Today
High -- | Low -- °F
--% Chance of Precip.
Yesterday
High -- | Low -- °F
Precip. -- in
Pressure 29.84 in
Visibility 10.0 miles
Clouds Clear
Heat Index 77 °F
Dew Point 47 °F
Humidity 39%
Rainfall 0.00 in
Snow Depth Not available.
5:27 AM 7:38 PM
Waning Gibbous, 68% visible
METAR KPGA 250753Z AUTO 17004KT 10SM CLR 26/07 A3008 RMK AO2 SLP104 T02610072 TSNO
Pressure 29.84 in
Visibility 10.0 miles
Clouds Clear
Heat Index 77 °F
Dew Point 47 °F
Humidity 39%
Rainfall 0.00 in
Snow Depth Not available.
5:27 AM 7:38 PM
Waning Gibbous, 68% visible
METAR KPGA 250753Z AUTO 17004KT 10SM CLR 26/07 A3008 RMK AO2 SLP104 T02610072 TSNO

10-Day Weather Forecast

Almanac

Astronomy

Jul. 25, 2016 Rise Set
Actual Time
Civil Twilight
Nautical Twilight
Astronomical Twilight
Moon
Length of Visible Light
Length of Day
Tomorrow will be .
, % of the Moon is Illuminated

Today's Extremes

State Highs State Lows

Community

WunderPhotos

Upload Photos

1,927,274 photos uploaded!

WunderBlog® & News

Nearby

Air Quality

  Air Quality AQ Index Pollutant
Not available.

Snow Depth

Station Depth Elevation

Earthquake Activity

City Distance Mag. Time & Date
Minimum magnitude displayed is 2.5.

Coastal Water Temperatures

Place Temperature

Stations

Nearby Weather Stations

Station Location Temp. Windchill Dew Point Humidity Wind Precip. Elev Updated Type
                   

Watches & Warnings

There are currently no watches in effect.